Airfield :
LOGIN :

Register | Disclaimer

   EN    FR    IT 

 










Legend :    VFR   Marginal VFR   IFR   Intensive IFR   Very Intensive IFR
Visi :
Ceiling :
>= 8 km
>= 3000ft
5 to 8 km
1000 to 3000 ft
1500m to 5 km
500 to 1000 ft
800 to 1500m
200 to 500 ft
< 800m
< 200 ft
Symbols :   Thunderstorms  Fog  Heavy snow  Heavy precipitations  Wind > 20 kt
SIGMETs :     Misc.  Thunderstorms  Icing  Turbulence  Mountain Waves  Volcanic Ashes






- Airport Elevation : 1959 ft
- IATA code : HOQ


EDQM - Hof Plauen

EXPIRED METARs :
  • 171750Z 23006KT 9999 SHRA SCT027 BKN042CB BKN096 08/07 Q1007
  • 171720Z 28009KT 9000 -SHRA FEW018 SCT026 BKN034CB 07/05 Q1007 RESHRA

TAF TAF EDQM
Valid from the 17 at 18:00 until the 18 at 03:00 UTC


171700Z 1718/1803 21008KT 9999 FEW020 SCT040
PROB30
TEMPO 1718/1720 25015G25KT SHRA BKN010CB



MET'MAP, your aeronautical weather chart ! - Copyright ORBIFLY December 2007 - Disclaimer

ORBIFLY MET'MAP TEAM :

Programming & Development : Alexandra Zaïnal
Concept & original design : Baudouin d'Aumeries
Assistance for programming : Marc-Olivier Méhu
Technical & hardware support : Manuel Goepfert

Contact : metmap@orbifly.com




SOURCES & CREDITS :

   NOAA